createdAt,value
2018-01-22T00:00:44.849Z,1017.05
2018-01-22T00:01:45.352Z,1017.02
2018-01-22T00:02:44.604Z,1017.02
2018-01-22T00:03:44.664Z,1017.01
2018-01-22T00:04:44.655Z,1017.02
2018-01-22T00:05:45.485Z,1016.98
2018-01-22T00:06:45.330Z,1016.96
2018-01-22T00:07:44.613Z,1016.95
2018-01-22T00:08:44.748Z,1016.94
2018-01-22T00:09:44.853Z,1016.96
2018-01-22T00:10:46.789Z,1016.94
2018-01-22T00:11:44.653Z,1016.94
2018-01-22T00:12:44.631Z,1016.87
2018-01-22T00:13:44.626Z,1016.9
2018-01-22T00:14:44.649Z,1016.83
2018-01-22T00:15:44.886Z,1016.8
2018-01-22T00:16:47.449Z,1016.81
2018-01-22T00:17:44.837Z,1016.77
2018-01-22T00:18:44.969Z,1016.73
2018-01-22T00:19:47.520Z,1016.69
2018-01-22T00:20:45.362Z,1016.7
2018-01-22T00:21:48.430Z,1016.69
2018-01-22T00:22:44.626Z,1016.64
2018-01-22T00:23:44.807Z,1016.56
2018-01-22T00:24:44.701Z,1016.56
2018-01-22T00:25:44.660Z,1016.54
2018-01-22T00:26:44.858Z,1016.49
2018-01-22T00:27:44.815Z,1016.46
2018-01-22T00:28:48.061Z,1016.39
2018-01-22T00:29:45.084Z,1016.32
2018-01-22T00:30:44.989Z,1016.33
2018-01-22T00:31:44.860Z,1016.31
2018-01-22T00:32:44.607Z,1016.26
2018-01-22T00:33:44.632Z,1016.32
2018-01-22T00:34:44.952Z,1016.31
2018-01-22T00:35:44.909Z,1016.3
2018-01-22T00:36:44.927Z,1016.29
2018-01-22T00:37:44.817Z,1016.24
2018-01-22T00:38:44.814Z,1016.24
2018-01-22T00:39:44.874Z,1016.19
2018-01-22T00:40:44.696Z,1016.18
2018-01-22T00:41:46.979Z,1016.14
2018-01-22T00:42:45.093Z,1016.04
2018-01-22T00:43:44.866Z,1016.06
2018-01-22T00:44:44.686Z,1016.03
2018-01-22T00:45:44.708Z,1015.96
2018-01-22T00:46:44.789Z,1015.94
2018-01-22T00:47:44.880Z,1015.95
2018-01-22T00:48:44.833Z,1015.94
2018-01-22T00:49:45.027Z,1015.87
2018-01-22T00:50:44.913Z,1015.77
2018-01-22T00:51:44.915Z,1015.7
2018-01-22T00:52:44.740Z,1015.69
2018-01-22T00:53:45.022Z,1015.69
2018-01-22T00:54:45.043Z,1015.71
2018-01-22T00:55:44.955Z,1015.64
2018-01-22T00:56:45.060Z,1015.58
2018-01-22T00:57:44.923Z,1015.53
2018-01-22T00:58:44.851Z,1015.55
2018-01-22T00:59:44.962Z,1015.51
2018-01-22T01:00:44.747Z,1015.47
2018-01-22T01:01:44.787Z,1015.41
2018-01-22T01:02:44.852Z,1015.4
2018-01-22T01:03:44.857Z,1015.33
2018-01-22T01:04:45.045Z,1015.3
2018-01-22T01:05:44.873Z,1015.28
2018-01-22T01:06:44.937Z,1015.26
2018-01-22T01:07:45.166Z,1015.26
2018-01-22T01:09:45.330Z,1015.2
2018-01-22T01:10:44.851Z,1015.21
2018-01-22T01:11:44.916Z,1015.19
2018-01-22T01:12:46.865Z,1015.24
2018-01-22T01:13:44.948Z,1015.24
2018-01-22T01:14:45.242Z,1015.23
2018-01-22T01:15:44.966Z,1015.21
2018-01-22T01:16:45.050Z,1015.2
2018-01-22T01:17:44.850Z,1015.12
2018-01-22T01:18:44.881Z,1015.12
2018-01-22T01:19:44.935Z,1015.1
2018-01-22T01:20:44.952Z,1015.11
2018-01-22T01:21:45.095Z,1015.17
2018-01-22T01:22:44.910Z,1015.21
2018-01-22T01:23:45.019Z,1015.19
2018-01-22T01:24:45.014Z,1015.15
2018-01-22T01:25:45.021Z,1015.17
2018-01-22T01:26:46.908Z,1015.12
2018-01-22T01:27:44.820Z,1015.11
2018-01-22T01:28:45.096Z,1015.15
2018-01-22T01:29:46.812Z,1015.09
2018-01-22T01:30:46.972Z,1015.12
2018-01-22T01:31:45.124Z,1015.1
2018-01-22T01:32:45.019Z,1015.05
2018-01-22T01:33:45.384Z,1014.99
2018-01-22T01:34:45.230Z,1015.04
2018-01-22T01:35:44.925Z,1015.04
2018-01-22T01:36:44.864Z,1015.06
2018-01-22T01:37:45.249Z,1015.06
2018-01-22T01:40:01.928Z,1015
2018-01-22T01:40:45.283Z,1014.98
2018-01-22T01:41:45.020Z,1014.93
2018-01-22T01:42:45.268Z,1014.89
2018-01-22T01:45:45.507Z,1014.85
2018-01-22T01:46:44.839Z,1014.92
2018-01-22T01:47:45.237Z,1014.88
2018-01-22T01:48:44.949Z,1014.96
2018-01-22T01:49:45.484Z,1014.91
2018-01-22T01:50:45.015Z,1014.9
2018-01-22T01:51:47.057Z,1014.86
2018-01-22T01:52:44.875Z,1014.83
2018-01-22T01:53:45.201Z,1014.87
2018-01-22T01:54:45.313Z,1014.79
2018-01-22T01:55:44.947Z,1014.76
2018-01-22T01:56:44.919Z,1014.74
2018-01-22T01:57:45.052Z,1014.68
2018-01-22T01:58:45.148Z,1014.67
2018-01-22T01:59:44.951Z,1014.71
2018-01-22T02:00:45.022Z,1014.68
2018-01-22T02:01:45.006Z,1014.66
2018-01-22T02:02:45.304Z,1014.66
2018-01-22T02:03:46.528Z,1014.59
2018-01-22T02:04:45.011Z,1014.58
2018-01-22T02:05:45.134Z,1014.52
2018-01-22T02:06:45.218Z,1014.54
2018-01-22T02:07:47.667Z,1014.51
2018-01-22T02:08:47.098Z,1014.51
2018-01-22T02:09:45.033Z,1014.47
2018-01-22T02:10:46.917Z,1014.46
2018-01-22T02:11:45.204Z,1014.5
2018-01-22T02:12:45.157Z,1014.45
2018-01-22T02:13:45.019Z,1014.47
2018-01-22T02:14:45.197Z,1014.41
2018-01-22T02:15:45.034Z,1014.41
2018-01-22T02:16:44.991Z,1014.43
2018-01-22T02:17:44.974Z,1014.36
2018-01-22T02:18:45.117Z,1014.33
2018-01-22T02:19:46.921Z,1014.35
2018-01-22T02:20:44.980Z,1014.3
2018-01-22T02:21:45.096Z,1014.23
2018-01-22T02:25:06.053Z,1014.15
2018-01-22T02:25:45.055Z,1014.12
2018-01-22T02:27:45.024Z,1014.05
2018-01-22T02:28:44.990Z,1014.12
2018-01-22T02:29:45.170Z,1014.1
2018-01-22T02:30:44.971Z,1014.06
2018-01-22T02:31:44.974Z,1013.98
2018-01-22T02:32:44.962Z,1014.01
2018-01-22T02:33:44.908Z,1014.03
2018-01-22T02:34:45.219Z,1013.97
2018-01-22T02:35:45.020Z,1013.97
2018-01-22T02:36:45.066Z,1013.94
2018-01-22T02:37:47.223Z,1013.91
2018-01-22T02:38:45.021Z,1013.92
2018-01-22T02:39:45.522Z,1013.99
2018-01-22T02:40:45.910Z,1013.96
2018-01-22T02:41:45.091Z,1013.91
2018-01-22T02:42:47.079Z,1013.88
2018-01-22T02:43:45.050Z,1013.86
2018-01-22T02:44:45.044Z,1013.8
2018-01-22T02:47:45.255Z,1013.82
2018-01-22T02:48:45.175Z,1013.84
2018-01-22T02:49:46.743Z,1013.78
2018-01-22T02:50:45.042Z,1013.83
2018-01-22T02:51:44.975Z,1013.75
2018-01-22T02:52:45.126Z,1013.77
2018-01-22T02:53:45.188Z,1013.7
2018-01-22T02:54:45.448Z,1013.71
2018-01-22T02:55:47.092Z,1013.7
2018-01-22T02:56:45.107Z,1013.65
2018-01-22T02:57:45.196Z,1013.68
2018-01-22T02:58:46.737Z,1013.68
2018-01-22T02:59:45.117Z,1013.7
2018-01-22T03:00:45.156Z,1013.7
2018-01-22T03:01:46.729Z,1013.66
2018-01-22T03:02:46.980Z,1013.64
2018-01-22T03:03:45.090Z,1013.65
2018-01-22T03:04:45.091Z,1013.67
2018-01-22T03:05:45.053Z,1013.62
2018-01-22T03:06:45.143Z,1013.6
2018-01-22T03:08:46.964Z,1013.53
2018-01-22T03:09:45.026Z,1013.55
2018-01-22T03:10:45.034Z,1013.55
2018-01-22T03:11:45.054Z,1013.56
2018-01-22T03:12:45.466Z,1013.57
2018-01-22T03:13:45.113Z,1013.55
2018-01-22T03:14:45.048Z,1013.62
2018-01-22T03:15:45.036Z,1013.56
2018-01-22T03:16:44.997Z,1013.55
2018-01-22T03:17:45.014Z,1013.54
2018-01-22T03:18:45.153Z,1013.54
2018-01-22T03:21:45.257Z,1013.56
2018-01-22T03:22:45.010Z,1013.5
2018-01-22T03:23:45.108Z,1013.52
2018-01-22T03:24:45.058Z,1013.47
2018-01-22T03:25:45.034Z,1013.52
2018-01-22T03:26:45.078Z,1013.52
2018-01-22T03:27:45.040Z,1013.52
2018-01-22T03:28:45.063Z,1013.59
2018-01-22T03:29:45.172Z,1013.62
2018-01-22T03:30:45.043Z,1013.58
2018-01-22T03:31:45.024Z,1013.55
2018-01-22T03:32:45.120Z,1013.61
2018-01-22T03:33:45.081Z,1013.55
2018-01-22T03:34:45.166Z,1013.56
2018-01-22T03:35:45.025Z,1013.55
2018-01-22T03:36:45.073Z,1013.56
2018-01-22T03:37:45.047Z,1013.57
2018-01-22T03:38:45.139Z,1013.65
2018-01-22T03:39:45.044Z,1013.62
2018-01-22T03:40:45.065Z,1013.66
2018-01-22T03:41:45.082Z,1013.71
2018-01-22T03:43:45.166Z,1013.67
2018-01-22T03:44:45.078Z,1013.67
2018-01-22T03:47:45.278Z,1013.67
2018-01-22T03:48:45.069Z,1013.68
2018-01-22T03:49:45.018Z,1013.72
2018-01-22T03:50:45.016Z,1013.67
2018-01-22T03:51:45.136Z,1013.71
2018-01-22T03:52:45.116Z,1013.73
2018-01-22T03:53:45.123Z,1013.81
2018-01-22T03:54:45.021Z,1013.74
2018-01-22T03:55:45.127Z,1013.76
2018-01-22T03:56:45.170Z,1013.71
2018-01-22T03:57:45.484Z,1013.75
2018-01-22T03:58:45.115Z,1013.75
2018-01-22T03:59:45.084Z,1013.79
2018-01-22T04:00:45.142Z,1013.82
2018-01-22T04:01:45.122Z,1013.76
2018-01-22T04:02:45.189Z,1013.79
2018-01-22T04:03:45.134Z,1013.76
2018-01-22T04:04:45.067Z,1013.74
2018-01-22T04:05:44.991Z,1013.71
2018-01-22T04:06:45.034Z,1013.71
2018-01-22T04:07:45.108Z,1013.69
2018-01-22T04:08:45.216Z,1013.66
2018-01-22T04:09:45.144Z,1013.66
2018-01-22T04:10:45.129Z,1013.64
2018-01-22T04:11:45.072Z,1013.61
2018-01-22T04:12:45.121Z,1013.66
2018-01-22T04:13:45.171Z,1013.62
2018-01-22T04:14:45.120Z,1013.67
2018-01-22T04:15:45.119Z,1013.64
2018-01-22T04:16:45.133Z,1013.64
2018-01-22T04:17:45.064Z,1013.6
2018-01-22T04:18:45.171Z,1013.58
2018-01-22T04:21:45.026Z,1013.55
2018-01-22T04:22:45.148Z,1013.57
2018-01-22T04:25:52.730Z,1013.52
2018-01-22T04:28:45.202Z,1013.53
2018-01-22T04:29:45.180Z,1013.53
2018-01-22T04:30:45.052Z,1013.54
2018-01-22T04:31:45.039Z,1013.51
2018-01-22T04:32:45.141Z,1013.47
2018-01-22T04:33:45.143Z,1013.46
2018-01-22T04:34:45.209Z,1013.46
2018-01-22T04:35:45.212Z,1013.45
2018-01-22T04:36:45.123Z,1013.46
2018-01-22T04:37:45.173Z,1013.5
2018-01-22T04:38:45.193Z,1013.46
2018-01-22T04:39:45.175Z,1013.49
2018-01-22T04:40:45.089Z,1013.47
2018-01-22T04:41:45.059Z,1013.49
2018-01-22T04:42:45.147Z,1013.46
2018-01-22T04:43:45.179Z,1013.44
2018-01-22T04:44:45.138Z,1013.43
2018-01-22T04:45:45.157Z,1013.45
2018-01-22T04:48:45.224Z,1013.53
2018-01-22T04:49:45.193Z,1013.54
2018-01-22T04:50:45.223Z,1013.47
2018-01-22T04:51:45.206Z,1013.53
2018-01-22T04:52:45.198Z,1013.47
2018-01-22T04:53:45.238Z,1013.56
2018-01-22T04:54:45.536Z,1013.52
2018-01-22T04:55:45.689Z,1013.55
2018-01-22T04:56:45.178Z,1013.52
2018-01-22T04:57:45.105Z,1013.52
2018-01-22T05:00:45.213Z,1013.49
2018-01-22T05:01:45.139Z,1013.51
2018-01-22T05:02:45.168Z,1013.5
2018-01-22T05:03:45.256Z,1013.52
2018-01-22T05:04:45.171Z,1013.46
2018-01-22T05:05:45.178Z,1013.42
2018-01-22T05:06:45.163Z,1013.4
2018-01-22T05:07:45.165Z,1013.44
2018-01-22T05:08:45.144Z,1013.4
2018-01-22T05:09:46.653Z,1013.41
2018-01-22T05:10:45.348Z,1013.42
2018-01-22T05:11:45.309Z,1013.44
2018-01-22T05:12:45.232Z,1013.4
2018-01-22T05:13:45.251Z,1013.36
2018-01-22T05:14:45.265Z,1013.33
2018-01-22T05:15:45.170Z,1013.35
2018-01-22T05:16:45.148Z,1013.34
2018-01-22T05:17:45.145Z,1013.31
2018-01-22T05:18:45.257Z,1013.32
2018-01-22T05:19:45.226Z,1013.32
2018-01-22T05:20:45.130Z,1013.31
2018-01-22T05:21:45.272Z,1013.34
2018-01-22T05:22:45.215Z,1013.31
2018-01-22T05:23:45.207Z,1013.26
2018-01-22T05:24:45.123Z,1013.26
2018-01-22T05:25:45.177Z,1013.31
2018-01-22T05:26:45.226Z,1013.31
2018-01-22T05:27:45.226Z,1013.25
2018-01-22T05:28:45.187Z,1013.23
2018-01-22T05:29:45.218Z,1013.23
2018-01-22T05:30:45.234Z,1013.26
2018-01-22T05:31:45.177Z,1013.29
2018-01-22T05:32:45.200Z,1013.26
2018-01-22T05:33:45.204Z,1013.24
2018-01-22T05:34:45.179Z,1013.29
2018-01-22T05:35:45.195Z,1013.29
2018-01-22T05:36:46.202Z,1013.26
2018-01-22T05:37:45.203Z,1013.26
2018-01-22T05:38:45.173Z,1013.28
2018-01-22T05:39:45.238Z,1013.26
2018-01-22T05:40:45.351Z,1013.24
2018-01-22T05:41:45.267Z,1013.24
2018-01-22T05:42:45.149Z,1013.28
2018-01-22T05:43:45.299Z,1013.25
2018-01-22T05:44:45.307Z,1013.23
2018-01-22T05:45:45.334Z,1013.15
2018-01-22T05:46:45.304Z,1013.11
2018-01-22T05:47:45.300Z,1013.09
2018-01-22T05:48:45.327Z,1013.1
2018-01-22T05:49:45.200Z,1013.09
2018-01-22T05:50:45.263Z,1013.17
2018-01-22T05:51:45.193Z,1013.09
2018-01-22T05:52:45.693Z,1013.09
2018-01-22T05:53:45.259Z,1013.04
2018-01-22T05:54:45.233Z,1013.05
2018-01-22T05:55:45.191Z,1013.1
2018-01-22T05:56:45.295Z,1013.1
2018-01-22T05:57:45.266Z,1013.06
2018-01-22T05:58:45.288Z,1013.04
2018-01-22T05:59:45.248Z,1013.05
2018-01-22T06:00:45.198Z,1013.08
2018-01-22T06:01:45.290Z,1013.07
2018-01-22T06:02:45.677Z,1013.11
2018-01-22T06:03:45.236Z,1013.1
2018-01-22T06:04:45.253Z,1013.13
2018-01-22T06:05:45.286Z,1013.09
2018-01-22T06:06:45.257Z,1013.1
2018-01-22T06:07:45.337Z,1013.1
2018-01-22T06:08:45.333Z,1013.08
2018-01-22T06:09:45.218Z,1013.04
2018-01-22T06:10:45.204Z,1013.06
2018-01-22T06:11:45.254Z,1013.03
2018-01-22T06:12:45.240Z,1013
2018-01-22T06:13:45.226Z,1013.03
2018-01-22T06:14:45.324Z,1013.01
2018-01-22T06:15:45.279Z,1013.04
2018-01-22T06:16:45.260Z,1013.03
2018-01-22T06:17:45.434Z,1013.01
2018-01-22T06:18:45.272Z,1013.02
2018-01-22T06:19:45.257Z,1012.99
2018-01-22T06:20:45.325Z,1012.97
2018-01-22T06:21:45.326Z,1013.02
2018-01-22T06:22:45.412Z,1012.98
2018-01-22T06:23:45.281Z,1013.03
2018-01-22T06:24:45.225Z,1013.02
2018-01-22T06:25:45.374Z,1013.01
2018-01-22T06:26:45.266Z,1013
2018-01-22T06:28:45.485Z,1012.93
2018-01-22T06:29:45.259Z,1012.99
2018-01-22T06:30:45.332Z,1012.92
2018-01-22T06:31:45.306Z,1012.95
2018-01-22T06:32:45.215Z,1012.94
2018-01-22T06:33:45.221Z,1012.94
2018-01-22T06:34:45.320Z,1012.94
2018-01-22T06:35:45.367Z,1012.97
2018-01-22T06:36:45.296Z,1012.95
2018-01-22T06:37:45.320Z,1012.93
2018-01-22T06:38:45.304Z,1012.88
2018-01-22T06:39:45.445Z,1012.84
2018-01-22T06:40:45.225Z,1012.83
2018-01-22T06:41:45.610Z,1012.84
2018-01-22T06:42:45.411Z,1012.81
2018-01-22T06:43:45.293Z,1012.86
2018-01-22T06:44:45.448Z,1012.83
2018-01-22T06:45:45.425Z,1012.82
2018-01-22T06:46:45.491Z,1012.83
2018-01-22T06:47:45.473Z,1012.77
2018-01-22T06:48:45.355Z,1012.76
2018-01-22T06:49:45.347Z,1012.75
2018-01-22T06:50:45.344Z,1012.72
2018-01-22T06:51:45.371Z,1012.75
2018-01-22T06:52:45.587Z,1012.75
2018-01-22T06:53:45.420Z,1012.72
2018-01-22T06:54:45.302Z,1012.74
2018-01-22T06:55:45.415Z,1012.72
2018-01-22T06:56:45.415Z,1012.78
2018-01-22T06:57:45.322Z,1012.7
2018-01-22T06:58:45.417Z,1012.68
2018-01-22T07:02:45.358Z,1012.7
2018-01-22T07:03:45.440Z,1012.71
2018-01-22T07:04:45.504Z,1012.75
2018-01-22T07:05:44.394Z,1012.7
2018-01-22T07:06:44.474Z,1012.75
2018-01-22T07:07:45.123Z,1012.69
2018-01-22T07:08:44.446Z,1012.65
2018-01-22T07:09:45.052Z,1012.61
2018-01-22T07:10:44.470Z,1012.68
2018-01-22T07:11:44.413Z,1012.64
2018-01-22T07:12:44.426Z,1012.66
2018-01-22T07:13:44.419Z,1012.66
2018-01-22T07:17:11.445Z,1012.7
2018-01-22T07:17:44.349Z,1012.75
2018-01-22T07:18:44.368Z,1012.72
2018-01-22T07:19:46.204Z,1012.73
2018-01-22T07:20:44.397Z,1012.7
2018-01-22T07:21:44.529Z,1012.75
2018-01-22T07:22:44.444Z,1012.81
2018-01-22T07:23:44.350Z,1012.81
2018-01-22T07:24:44.532Z,1012.76
2018-01-22T07:25:44.364Z,1012.77
2018-01-22T07:26:44.371Z,1012.73
2018-01-22T07:27:44.413Z,1012.7
2018-01-22T07:28:45.888Z,1012.72
2018-01-22T07:29:44.463Z,1012.69
2018-01-22T07:30:46.280Z,1012.66
2018-01-22T07:31:44.559Z,1012.58
2018-01-22T07:32:44.523Z,1012.58
2018-01-22T07:33:45.719Z,1012.51
2018-01-22T07:34:44.492Z,1012.48
2018-01-22T07:37:44.612Z,1012.47
2018-01-22T07:38:46.023Z,1012.39
2018-01-22T07:39:45.753Z,1012.41
2018-01-22T07:40:44.419Z,1012.51
2018-01-22T07:41:44.583Z,1012.52
2018-01-22T07:42:44.688Z,1012.57
2018-01-22T07:43:44.608Z,1012.56
2018-01-22T07:44:44.544Z,1012.52
2018-01-22T07:45:44.498Z,1012.58
2018-01-22T07:46:44.913Z,1012.58
2018-01-22T07:47:44.596Z,1012.63
2018-01-22T07:48:44.423Z,1012.7
2018-01-22T07:49:44.492Z,1012.73
2018-01-22T07:50:44.444Z,1012.75
2018-01-22T07:51:44.464Z,1012.79
2018-01-22T07:52:44.359Z,1012.8
2018-01-22T07:53:44.496Z,1012.81
2018-01-22T07:54:44.451Z,1012.77
2018-01-22T07:55:44.672Z,1012.75
2018-01-22T07:56:44.406Z,1012.72
2018-01-22T07:57:44.504Z,1012.7
2018-01-22T07:58:44.545Z,1012.68
2018-01-22T07:59:44.536Z,1012.68
2018-01-22T08:00:44.448Z,1012.72
2018-01-22T08:01:44.563Z,1012.66
2018-01-22T08:02:44.435Z,1012.63
2018-01-22T08:04:44.455Z,1012.55
2018-01-22T08:05:44.621Z,1012.55
2018-01-22T08:06:44.648Z,1012.55
2018-01-22T08:07:44.789Z,1012.46
2018-01-22T08:08:44.672Z,1012.48
2018-01-22T08:09:44.698Z,1012.4
2018-01-22T08:10:44.808Z,1012.39
2018-01-22T08:11:44.670Z,1012.37
2018-01-22T08:12:44.609Z,1012.42
2018-01-22T08:13:44.609Z,1012.37
2018-01-22T08:14:44.709Z,1012.41
2018-01-22T08:15:44.815Z,1012.39
2018-01-22T08:18:45.270Z,1012.37
2018-01-22T08:19:44.644Z,1012.42
2018-01-22T08:20:44.724Z,1012.48
2018-01-22T08:21:45.404Z,1012.49
2018-01-22T08:22:44.547Z,1012.48
2018-01-22T08:23:44.566Z,1012.44
2018-01-22T08:24:44.493Z,1012.45
2018-01-22T08:25:44.580Z,1012.44
2018-01-22T08:26:44.586Z,1012.46
2018-01-22T08:27:44.537Z,1012.45
2018-01-22T08:28:44.573Z,1012.49
2018-01-22T08:29:44.645Z,1012.42
2018-01-22T08:30:45.391Z,1012.41
2018-01-22T08:31:44.596Z,1012.47
2018-01-22T08:32:44.623Z,1012.43
2018-01-22T08:33:44.560Z,1012.41
2018-01-22T08:34:44.546Z,1012.43
2018-01-22T08:35:44.609Z,1012.46
2018-01-22T08:36:44.602Z,1012.46
2018-01-22T08:37:44.963Z,1012.43
2018-01-22T08:38:44.929Z,1012.42
2018-01-22T08:39:44.808Z,1012.41
2018-01-22T08:40:44.818Z,1012.46
2018-01-22T08:41:44.865Z,1012.46
2018-01-22T08:42:44.991Z,1012.49
2018-01-22T08:43:44.848Z,1012.5
2018-01-22T08:44:44.947Z,1012.52
2018-01-22T08:45:44.865Z,1012.46
2018-01-22T08:46:44.685Z,1012.51
2018-01-22T08:47:44.810Z,1012.49
2018-01-22T08:48:44.754Z,1012.55
2018-01-22T08:49:44.980Z,1012.54
2018-01-22T08:50:44.667Z,1012.48
2018-01-22T08:51:44.705Z,1012.44
2018-01-22T08:52:45.442Z,1012.43
2018-01-22T08:53:44.779Z,1012.39
2018-01-22T08:54:44.767Z,1012.39
2018-01-22T08:55:44.776Z,1012.38
2018-01-22T08:56:44.813Z,1012.35
2018-01-22T08:57:44.801Z,1012.36
2018-01-22T08:58:44.935Z,1012.35
2018-01-22T08:59:44.943Z,1012.37
2018-01-22T09:00:44.849Z,1012.35
2018-01-22T09:01:44.837Z,1012.38
2018-01-22T09:02:44.898Z,1012.39
2018-01-22T09:03:44.713Z,1012.38
2018-01-22T09:04:44.859Z,1012.34
2018-01-22T09:05:44.853Z,1012.32
2018-01-22T09:06:44.939Z,1012.34
2018-01-22T09:07:45.004Z,1012.34
2018-01-22T09:08:44.981Z,1012.38
2018-01-22T09:09:45.150Z,1012.34
2018-01-22T09:10:44.906Z,1012.34
2018-01-22T09:11:44.960Z,1012.33
2018-01-22T09:12:45.063Z,1012.33
2018-01-22T09:13:44.884Z,1012.32
2018-01-22T09:14:44.966Z,1012.32
2018-01-22T09:15:44.883Z,1012.32
2018-01-22T09:16:44.902Z,1012.34
2018-01-22T09:17:45.069Z,1012.35
2018-01-22T09:18:45.057Z,1012.32
2018-01-22T09:19:59.452Z,1012.33
2018-01-22T09:20:45.060Z,1012.31
2018-01-22T09:21:44.919Z,1012.29
2018-01-22T09:22:44.902Z,1012.26
2018-01-22T09:23:44.967Z,1012.3
2018-01-22T09:24:44.960Z,1012.18
2018-01-22T09:25:45.030Z,1012.24
2018-01-22T09:26:44.961Z,1012.23
2018-01-22T09:27:44.901Z,1012.24
2018-01-22T09:28:44.818Z,1012.23
2018-01-22T09:29:44.840Z,1012.29
2018-01-22T09:30:44.949Z,1012.25
2018-01-22T09:31:44.939Z,1012.29
2018-01-22T09:32:44.826Z,1012.26
2018-01-22T09:33:44.856Z,1012.23
2018-01-22T09:34:44.902Z,1012.21
2018-01-22T09:35:44.946Z,1012.24
2018-01-22T09:36:45.151Z,1012.17
2018-01-22T09:37:45.058Z,1012.19
2018-01-22T09:38:45.108Z,1012.2
2018-01-22T09:39:45.123Z,1012.22
2018-01-22T09:40:45.878Z,1012.22
2018-01-22T09:41:45.246Z,1012.26
2018-01-22T09:42:45.150Z,1012.27
2018-01-22T09:43:45.201Z,1012.25
2018-01-22T09:44:45.149Z,1012.24
2018-01-22T09:45:45.039Z,1012.27
2018-01-22T09:46:45.165Z,1012.24
2018-01-22T09:47:45.143Z,1012.24
2018-01-22T09:48:45.160Z,1012.27
2018-01-22T09:49:45.069Z,1012.25
2018-01-22T09:50:45.058Z,1012.21
2018-01-22T09:51:45.748Z,1012.24
2018-01-22T09:52:44.934Z,1012.23
2018-01-22T09:53:44.984Z,1012.28
2018-01-22T09:54:45.020Z,1012.36
2018-01-22T09:55:45.004Z,1012.33
2018-01-22T09:56:45.046Z,1012.34
2018-01-22T09:57:44.987Z,1012.34
2018-01-22T09:58:45.035Z,1012.39
2018-01-22T09:59:45.024Z,1012.39
2018-01-22T10:00:45.221Z,1012.41
2018-01-22T10:01:44.963Z,1012.42
2018-01-22T10:02:45.090Z,1012.4
2018-01-22T10:03:45.036Z,1012.42
2018-01-22T10:04:45.020Z,1012.35
2018-01-22T10:05:45.061Z,1012.37
2018-01-22T10:06:45.823Z,1012.37
2018-01-22T10:07:45.141Z,1012.41
2018-01-22T10:08:45.260Z,1012.4
2018-01-22T10:09:45.235Z,1012.41
2018-01-22T10:10:45.117Z,1012.39
2018-01-22T10:11:45.249Z,1012.41
2018-01-22T10:12:45.124Z,1012.41
2018-01-22T10:13:44.990Z,1012.39
2018-01-22T10:14:45.111Z,1012.39
2018-01-22T10:15:45.054Z,1012.38
2018-01-22T10:16:45.154Z,1012.37
2018-01-22T10:17:45.115Z,1012.41
2018-01-22T10:18:45.171Z,1012.44
2018-01-22T10:19:45.099Z,1012.46
2018-01-22T10:20:45.168Z,1012.46
2018-01-22T10:21:45.288Z,1012.49
2018-01-22T10:22:45.119Z,1012.47
2018-01-22T10:23:45.208Z,1012.47
2018-01-22T10:24:45.221Z,1012.49
2018-01-22T10:25:45.148Z,1012.48
2018-01-22T10:26:45.559Z,1012.5
2018-01-22T10:27:45.358Z,1012.45
2018-01-22T10:28:45.187Z,1012.45
2018-01-22T10:29:45.067Z,1012.4
2018-01-22T10:30:45.025Z,1012.39
2018-01-22T10:31:45.093Z,1012.39
2018-01-22T10:32:46.206Z,1012.4
2018-01-22T10:33:45.069Z,1012.41
2018-01-22T10:34:45.049Z,1012.43
2018-01-22T10:35:45.042Z,1012.47
2018-01-22T10:36:45.077Z,1012.39
2018-01-22T10:37:45.136Z,1012.38
2018-01-22T10:38:45.064Z,1012.39
2018-01-22T10:39:45.300Z,1012.4
2018-01-22T10:40:45.177Z,1012.34
2018-01-22T10:41:45.239Z,1012.31
2018-01-22T10:42:45.104Z,1012.3
2018-01-22T10:43:45.316Z,1012.29
2018-01-22T10:44:45.358Z,1012.27
2018-01-22T10:45:45.187Z,1012.29
2018-01-22T10:46:45.245Z,1012.27
2018-01-22T10:47:45.358Z,1012.22
2018-01-22T10:48:45.094Z,1012.19
2018-01-22T10:49:45.169Z,1012.19
2018-01-22T10:50:45.122Z,1012.18
2018-01-22T10:51:45.040Z,1012.18
2018-01-22T10:52:45.162Z,1012.18
2018-01-22T10:53:45.038Z,1012.13
2018-01-22T10:54:45.068Z,1012.15
2018-01-22T10:55:45.228Z,1012.15
2018-01-22T10:56:45.146Z,1012.12
2018-01-22T10:57:45.230Z,1012.1
2018-01-22T10:58:45.011Z,1012.11
2018-01-22T10:59:45.165Z,1012.07
2018-01-22T11:00:45.295Z,1012.04
2018-01-22T11:01:45.165Z,1012.05
2018-01-22T11:02:45.104Z,1011.98
2018-01-22T11:03:45.184Z,1011.96
2018-01-22T11:04:45.086Z,1011.97
2018-01-22T11:05:45.172Z,1011.96
2018-01-22T11:06:45.258Z,1011.96
2018-01-22T11:07:45.481Z,1011.94
2018-01-22T11:08:44.684Z,1011.92
2018-01-22T11:09:44.550Z,1011.91
2018-01-22T11:10:44.543Z,1011.91
2018-01-22T11:11:44.621Z,1011.87
2018-01-22T11:12:44.650Z,1011.85
2018-01-22T11:13:44.598Z,1011.87
2018-01-22T11:14:44.506Z,1011.87
2018-01-22T11:15:44.513Z,1011.9
2018-01-22T11:16:44.444Z,1011.92
2018-01-22T11:17:44.489Z,1011.92
2018-01-22T11:18:44.485Z,1011.91
2018-01-22T11:19:44.570Z,1011.95
2018-01-22T11:20:44.404Z,1011.92
2018-01-22T11:21:44.565Z,1011.9
2018-01-22T11:22:44.495Z,1011.94
2018-01-22T11:23:44.379Z,1011.91
2018-01-22T11:24:44.434Z,1011.88
2018-01-22T11:25:44.444Z,1011.87
2018-01-22T11:26:44.503Z,1011.92
2018-01-22T11:27:44.501Z,1011.91
2018-01-22T11:28:44.588Z,1011.87
2018-01-22T11:29:44.511Z,1011.84
2018-01-22T11:30:44.518Z,1011.76
2018-01-22T11:31:44.404Z,1011.84
2018-01-22T11:32:44.439Z,1011.86
2018-01-22T11:33:44.448Z,1011.82
2018-01-22T11:34:44.774Z,1011.78
2018-01-22T11:35:44.478Z,1011.82
2018-01-22T11:36:44.387Z,1011.76
2018-01-22T11:37:44.494Z,1011.81
2018-01-22T11:38:44.521Z,1011.76
2018-01-22T11:39:44.770Z,1011.73
2018-01-22T11:40:44.535Z,1011.7
2018-01-22T11:41:44.473Z,1011.65
2018-01-22T11:42:44.738Z,1011.65
2018-01-22T11:43:44.598Z,1011.55
2018-01-22T11:44:44.615Z,1011.59
2018-01-22T11:45:44.641Z,1011.61
2018-01-22T11:46:44.670Z,1011.61
2018-01-22T11:47:44.616Z,1011.62
2018-01-22T11:48:44.836Z,1011.61
2018-01-22T11:49:44.827Z,1011.62
2018-01-22T11:50:44.515Z,1011.61
2018-01-22T11:51:44.532Z,1011.58
2018-01-22T11:52:44.476Z,1011.6
2018-01-22T11:53:44.454Z,1011.54
2018-01-22T11:54:44.626Z,1011.48
2018-01-22T11:55:44.557Z,1011.5
2018-01-22T11:56:44.553Z,1011.46
2018-01-22T11:57:44.544Z,1011.42
2018-01-22T11:58:44.603Z,1011.42
2018-01-22T11:59:44.759Z,1011.45
2018-01-22T12:00:44.629Z,1011.45
2018-01-22T12:01:44.513Z,1011.44
2018-01-22T12:02:44.587Z,1011.38
2018-01-22T12:03:44.541Z,1011.4
2018-01-22T12:04:44.612Z,1011.44
2018-01-22T12:05:44.527Z,1011.43
2018-01-22T12:06:44.635Z,1011.43
2018-01-22T12:07:44.709Z,1011.43
2018-01-22T12:08:45.106Z,1011.48
2018-01-22T12:09:45.201Z,1011.43
2018-01-22T12:10:45.073Z,1011.42
2018-01-22T12:11:45.158Z,1011.45
2018-01-22T12:12:45.202Z,1011.39
2018-01-22T12:13:45.094Z,1011.4
2018-01-22T12:14:45.595Z,1011.34
2018-01-22T12:15:45.045Z,1011.38
2018-01-22T12:16:45.116Z,1011.37
2018-01-22T12:17:45.187Z,1011.38
2018-01-22T12:18:45.191Z,1011.37
2018-01-22T12:19:45.251Z,1011.39
2018-01-22T12:20:45.130Z,1011.33
2018-01-22T12:21:45.092Z,1011.31
2018-01-22T12:22:45.244Z,1011.35
2018-01-22T12:23:45.070Z,1011.31
2018-01-22T12:24:45.102Z,1011.31
2018-01-22T12:25:45.504Z,1011.35
2018-01-22T12:26:45.201Z,1011.37
2018-01-22T12:27:46.113Z,1011.36
2018-01-22T12:28:45.198Z,1011.35
2018-01-22T12:29:45.226Z,1011.34
2018-01-22T12:30:45.222Z,1011.36
2018-01-22T12:31:45.233Z,1011.38
2018-01-22T12:32:45.374Z,1011.36
2018-01-22T12:33:45.169Z,1011.4
2018-01-22T12:34:45.126Z,1011.42
2018-01-22T12:35:45.178Z,1011.37
2018-01-22T12:36:45.139Z,1011.34
2018-01-22T12:37:45.198Z,1011.34
2018-01-22T12:38:45.249Z,1011.38
2018-01-22T12:39:45.141Z,1011.36
2018-01-22T12:40:45.212Z,1011.32
2018-01-22T12:41:45.401Z,1011.33
2018-01-22T12:42:45.379Z,1011.3
2018-01-22T12:43:45.264Z,1011.32
2018-01-22T12:44:45.325Z,1011.32